sensor_id;sensor_type;location;lat;lon;timestamp;P1;durP1;ratioP1;P2;durP2;ratioP2
54977;SDS011;40873;47.522;19.106;2023-08-01T00:00:36;6.40;;;2.58;;
54977;SDS011;40873;47.522;19.106;2023-08-01T00:03:23;5.93;;;2.90;;
54977;SDS011;40873;47.522;19.106;2023-08-01T00:05:50;4.90;;;2.40;;
54977;SDS011;40873;47.522;19.106;2023-08-01T00:08:17;4.70;;;2.50;;
54977;SDS011;40873;47.522;19.106;2023-08-01T00:10:44;7.65;;;2.92;;
54977;SDS011;40873;47.522;19.106;2023-08-01T00:13:11;9.43;;;3.08;;
54977;SDS011;40873;47.522;19.106;2023-08-01T00:15:38;5.07;;;2.67;;
54977;SDS011;40873;47.522;19.106;2023-08-01T00:18:09;4.32;;;2.70;;
54977;SDS011;40873;47.522;19.106;2023-08-01T00:20:36;4.10;;;2.47;;
54977;SDS011;40873;47.522;19.106;2023-08-01T00:23:03;8.35;;;2.80;;
54977;SDS011;40873;47.522;19.106;2023-08-01T00:25:30;5.30;;;2.53;;
54977;SDS011;40873;47.522;19.106;2023-08-01T00:27:57;5.65;;;3.42;;
54977;SDS011;40873;47.522;19.106;2023-08-01T00:30:24;5.43;;;2.70;;
54977;SDS011;40873;47.522;19.106;2023-08-01T00:32:51;6.30;;;3.08;;
54977;SDS011;40873;47.522;19.106;2023-08-01T00:35:18;5.05;;;2.63;;
54977;SDS011;40873;47.522;19.106;2023-08-01T00:37:45;8.13;;;3.10;;
54977;SDS011;40873;47.522;19.106;2023-08-01T00:40:12;5.65;;;2.88;;
54977;SDS011;40873;47.522;19.106;2023-08-01T00:42:39;8.93;;;3.97;;
54977;SDS011;40873;47.522;19.106;2023-08-01T00:45:06;9.73;;;2.88;;
54977;SDS011;40873;47.522;19.106;2023-08-01T00:47:34;9.75;;;3.67;;
54977;SDS011;40873;47.522;19.106;2023-08-01T00:50:02;5.65;;;2.70;;
54977;SDS011;40873;47.522;19.106;2023-08-01T00:52:29;5.60;;;2.45;;
54977;SDS011;40873;47.522;19.106;2023-08-01T00:54:57;6.85;;;2.90;;
54977;SDS011;40873;47.522;19.106;2023-08-01T00:57:24;4.95;;;2.80;;
54977;SDS011;40873;47.522;19.106;2023-08-01T00:59:51;6.15;;;3.15;;
54977;SDS011;40873;47.522;19.106;2023-08-01T01:02:18;4.93;;;2.45;;
54977;SDS011;40873;47.522;19.106;2023-08-01T01:04:45;5.22;;;2.83;;
54977;SDS011;40873;47.522;19.106;2023-08-01T01:07:13;8.13;;;2.70;;
54977;SDS011;40873;47.522;19.106;2023-08-01T01:09:41;5.80;;;2.53;;
54977;SDS011;40873;47.522;19.106;2023-08-01T01:12:09;6.78;;;2.85;;
54977;SDS011;40873;47.522;19.106;2023-08-01T01:14:35;6.03;;;2.63;;
54977;SDS011;40873;47.522;19.106;2023-08-01T01:17:03;6.55;;;2.88;;
54977;SDS011;40873;47.522;19.106;2023-08-01T01:19:30;7.28;;;2.35;;
54977;SDS011;40873;47.522;19.106;2023-08-01T01:21:57;4.30;;;2.33;;
54977;SDS011;40873;47.522;19.106;2023-08-01T01:24:24;5.82;;;2.17;;
54977;SDS011;40873;47.522;19.106;2023-08-01T01:26:54;10.10;;;4.03;;
54977;SDS011;40873;47.522;19.106;2023-08-01T01:29:23;5.50;;;3.17;;
54977;SDS011;40873;47.522;19.106;2023-08-01T01:31:51;12.20;;;2.88;;
54977;SDS011;40873;47.522;19.106;2023-08-01T01:34:19;6.13;;;2.83;;
54977;SDS011;40873;47.522;19.106;2023-08-01T01:36:46;6.10;;;2.80;;
54977;SDS011;40873;47.522;19.106;2023-08-01T01:39:13;6.30;;;2.72;;
54977;SDS011;40873;47.522;19.106;2023-08-01T01:41:40;4.38;;;2.70;;
54977;SDS011;40873;47.522;19.106;2023-08-01T01:44:07;7.70;;;2.83;;
54977;SDS011;40873;47.522;19.106;2023-08-01T01:46:34;5.78;;;3.13;;
54977;SDS011;40873;47.522;19.106;2023-08-01T01:49:01;7.35;;;3.00;;
54977;SDS011;40873;47.522;19.106;2023-08-01T01:51:29;7.75;;;2.88;;
54977;SDS011;40873;47.522;19.106;2023-08-01T01:53:56;8.57;;;3.00;;
54977;SDS011;40873;47.522;19.106;2023-08-01T01:56:24;5.20;;;2.50;;
54977;SDS011;40873;47.522;19.106;2023-08-01T01:58:50;8.90;;;2.78;;
54977;SDS011;40873;47.522;19.106;2023-08-01T02:01:17;5.55;;;2.88;;
54977;SDS011;40873;47.522;19.106;2023-08-01T02:03:44;3.47;;;2.20;;
54977;SDS011;40873;47.522;19.106;2023-08-01T02:06:12;5.25;;;2.75;;
54977;SDS011;40873;47.522;19.106;2023-08-01T02:08:38;6.93;;;2.63;;
54977;SDS011;40873;47.522;19.106;2023-08-01T02:11:05;7.03;;;2.95;;
54977;SDS011;40873;47.522;19.106;2023-08-01T02:13:32;3.83;;;2.42;;
54977;SDS011;40873;47.522;19.106;2023-08-01T02:16:01;6.57;;;2.65;;
54977;SDS011;40873;47.522;19.106;2023-08-01T02:18:28;11.45;;;3.80;;
54977;SDS011;40873;47.522;19.106;2023-08-01T02:20:55;7.07;;;2.80;;
54977;SDS011;40873;47.522;19.106;2023-08-01T02:23:22;9.75;;;2.88;;
54977;SDS011;40873;47.522;19.106;2023-08-01T02:25:49;4.65;;;2.75;;
54977;SDS011;40873;47.522;19.106;2023-08-01T02:28:16;9.50;;;2.88;;
54977;SDS011;40873;47.522;19.106;2023-08-01T02:30:43;5.10;;;2.50;;
54977;SDS011;40873;47.522;19.106;2023-08-01T02:33:10;8.70;;;2.88;;
54977;SDS011;40873;47.522;19.106;2023-08-01T02:35:37;9.73;;;2.60;;
54977;SDS011;40873;47.522;19.106;2023-08-01T02:38:04;8.05;;;2.70;;
54977;SDS011;40873;47.522;19.106;2023-08-01T02:40:31;9.52;;;3.58;;
54977;SDS011;40873;47.522;19.106;2023-08-01T02:42:58;8.13;;;3.47;;
54977;SDS011;40873;47.522;19.106;2023-08-01T02:45:25;7.47;;;3.53;;
54977;SDS011;40873;47.522;19.106;2023-08-01T02:47:52;8.60;;;2.63;;
54977;SDS011;40873;47.522;19.106;2023-08-01T02:50:23;5.63;;;2.85;;
54977;SDS011;40873;47.522;19.106;2023-08-01T02:52:50;10.68;;;2.30;;
54977;SDS011;40873;47.522;19.106;2023-08-01T02:55:18;11.90;;;3.35;;
54977;SDS011;40873;47.522;19.106;2023-08-01T02:57:44;9.98;;;4.25;;
54977;SDS011;40873;47.522;19.106;2023-08-01T03:00:12;10.30;;;3.67;;
54977;SDS011;40873;47.522;19.106;2023-08-01T03:02:39;5.85;;;2.75;;
54977;SDS011;40873;47.522;19.106;2023-08-01T03:05:07;15.50;;;3.97;;
54977;SDS011;40873;47.522;19.106;2023-08-01T03:07:34;8.73;;;2.63;;
54977;SDS011;40873;47.522;19.106;2023-08-01T03:10:01;4.22;;;2.28;;
54977;SDS011;40873;47.522;19.106;2023-08-01T03:12:29;7.60;;;2.60;;
54977;SDS011;40873;47.522;19.106;2023-08-01T03:14:56;10.93;;;2.90;;
54977;SDS011;40873;47.522;19.106;2023-08-01T03:17:23;8.50;;;2.75;;
54977;SDS011;40873;47.522;19.106;2023-08-01T03:19:50;6.68;;;2.60;;
54977;SDS011;40873;47.522;19.106;2023-08-01T03:22:17;6.47;;;2.83;;
54977;SDS011;40873;47.522;19.106;2023-08-01T03:24:44;9.65;;;2.95;;
54977;SDS011;40873;47.522;19.106;2023-08-01T03:27:11;11.70;;;3.88;;
54977;SDS011;40873;47.522;19.106;2023-08-01T03:29:38;7.50;;;2.53;;
54977;SDS011;40873;47.522;19.106;2023-08-01T03:32:05;10.88;;;4.05;;
54977;SDS011;40873;47.522;19.106;2023-08-01T03:34:33;6.85;;;2.53;;
54977;SDS011;40873;47.522;19.106;2023-08-01T03:37:00;10.43;;;3.38;;
54977;SDS011;40873;47.522;19.106;2023-08-01T03:39:27;9.85;;;3.00;;
54977;SDS011;40873;47.522;19.106;2023-08-01T03:41:54;5.95;;;2.83;;
54977;SDS011;40873;47.522;19.106;2023-08-01T03:44:21;9.77;;;3.60;;
54977;SDS011;40873;47.522;19.106;2023-08-01T03:46:49;7.30;;;2.63;;
54977;SDS011;40873;47.522;19.106;2023-08-01T03:49:16;4.57;;;2.33;;
54977;SDS011;40873;47.522;19.106;2023-08-01T03:51:44;11.02;;;2.70;;
54977;SDS011;40873;47.522;19.106;2023-08-01T03:54:11;8.50;;;3.05;;
54977;SDS011;40873;47.522;19.106;2023-08-01T03:56:40;12.27;;;2.78;;
54977;SDS011;40873;47.522;19.106;2023-08-01T03:59:13;5.13;;;2.40;;
54977;SDS011;40873;47.522;19.106;2023-08-01T04:01:41;5.25;;;3.08;;
54977;SDS011;40873;47.522;19.106;2023-08-01T04:04:09;13.30;;;3.55;;
54977;SDS011;40873;47.522;19.106;2023-08-01T04:06:36;5.13;;;3.10;;
54977;SDS011;40873;47.522;19.106;2023-08-01T04:09:05;9.82;;;4.10;;
54977;SDS011;40873;47.522;19.106;2023-08-01T04:11:33;7.22;;;3.60;;
54977;SDS011;40873;47.522;19.106;2023-08-01T04:14:00;8.90;;;3.20;;
54977;SDS011;40873;47.522;19.106;2023-08-01T04:16:27;5.95;;;3.17;;
54977;SDS011;40873;47.522;19.106;2023-08-01T04:18:54;7.00;;;3.20;;
54977;SDS011;40873;47.522;19.106;2023-08-01T04:21:21;8.10;;;3.47;;
54977;SDS011;40873;47.522;19.106;2023-08-01T04:23:48;9.73;;;4.88;;
54977;SDS011;40873;47.522;19.106;2023-08-01T04:26:15;9.10;;;2.90;;
54977;SDS011;40873;47.522;19.106;2023-08-01T04:28:42;6.85;;;2.80;;
54977;SDS011;40873;47.522;19.106;2023-08-01T04:31:09;8.32;;;3.05;;
54977;SDS011;40873;47.522;19.106;2023-08-01T04:33:36;9.38;;;3.13;;
54977;SDS011;40873;47.522;19.106;2023-08-01T04:36:03;6.47;;;2.97;;
54977;SDS011;40873;47.522;19.106;2023-08-01T04:38:30;7.45;;;4.15;;
54977;SDS011;40873;47.522;19.106;2023-08-01T04:40:57;10.77;;;3.17;;
54977;SDS011;40873;47.522;19.106;2023-08-01T04:43:24;9.43;;;3.58;;
54977;SDS011;40873;47.522;19.106;2023-08-01T04:45:51;8.25;;;3.13;;
54977;SDS011;40873;47.522;19.106;2023-08-01T04:48:18;6.38;;;3.00;;
54977;SDS011;40873;47.522;19.106;2023-08-01T04:50:45;6.05;;;3.28;;
54977;SDS011;40873;47.522;19.106;2023-08-01T04:53:13;9.38;;;3.67;;
54977;SDS011;40873;47.522;19.106;2023-08-01T04:55:40;8.68;;;3.17;;
54977;SDS011;40873;47.522;19.106;2023-08-01T04:58:07;9.93;;;3.70;;
54977;SDS011;40873;47.522;19.106;2023-08-01T05:00:37;6.50;;;3.17;;
54977;SDS011;40873;47.522;19.106;2023-08-01T05:03:07;12.40;;;4.05;;
54977;SDS011;40873;47.522;19.106;2023-08-01T05:05:34;7.85;;;4.25;;
54977;SDS011;40873;47.522;19.106;2023-08-01T05:08:01;5.60;;;3.45;;
54977;SDS011;40873;47.522;19.106;2023-08-01T05:10:28;8.27;;;3.33;;
54977;SDS011;40873;47.522;19.106;2023-08-01T05:12:55;6.05;;;3.05;;
54977;SDS011;40873;47.522;19.106;2023-08-01T05:15:22;6.35;;;3.13;;
54977;SDS011;40873;47.522;19.106;2023-08-01T05:17:49;4.90;;;2.58;;
54977;SDS011;40873;47.522;19.106;2023-08-01T05:20:16;9.25;;;2.90;;
54977;SDS011;40873;47.522;19.106;2023-08-01T05:22:43;7.72;;;3.17;;
54977;SDS011;40873;47.522;19.106;2023-08-01T05:25:10;6.15;;;3.42;;
54977;SDS011;40873;47.522;19.106;2023-08-01T05:27:37;4.65;;;3.38;;
54977;SDS011;40873;47.522;19.106;2023-08-01T05:30:04;12.90;;;3.35;;
54977;SDS011;40873;47.522;19.106;2023-08-01T05:32:32;10.02;;;3.17;;
54977;SDS011;40873;47.522;19.106;2023-08-01T05:34:59;4.82;;;2.90;;
54977;SDS011;40873;47.522;19.106;2023-08-01T05:37:26;6.60;;;3.03;;
54977;SDS011;40873;47.522;19.106;2023-08-01T05:39:53;15.85;;;9.00;;
54977;SDS011;40873;47.522;19.106;2023-08-01T05:42:20;31.10;;;17.45;;
54977;SDS011;40873;47.522;19.106;2023-08-01T05:44:47;12.40;;;4.00;;
54977;SDS011;40873;47.522;19.106;2023-08-01T05:47:14;12.77;;;4.13;;
54977;SDS011;40873;47.522;19.106;2023-08-01T05:49:41;16.90;;;9.98;;
54977;SDS011;40873;47.522;19.106;2023-08-01T05:52:08;7.05;;;3.47;;
54977;SDS011;40873;47.522;19.106;2023-08-01T05:54:35;7.25;;;2.75;;
54977;SDS011;40873;47.522;19.106;2023-08-01T05:57:02;9.70;;;3.83;;
54977;SDS011;40873;47.522;19.106;2023-08-01T05:59:29;9.05;;;3.15;;
54977;SDS011;40873;47.522;19.106;2023-08-01T06:01:56;10.43;;;3.58;;
54977;SDS011;40873;47.522;19.106;2023-08-01T06:04:24;5.70;;;3.08;;
54977;SDS011;40873;47.522;19.106;2023-08-01T06:06:51;8.52;;;3.40;;
54977;SDS011;40873;47.522;19.106;2023-08-01T06:09:18;9.20;;;3.78;;
54977;SDS011;40873;47.522;19.106;2023-08-01T06:11:47;14.30;;;4.03;;
54977;SDS011;40873;47.522;19.106;2023-08-01T06:14:14;9.52;;;3.03;;
54977;SDS011;40873;47.522;19.106;2023-08-01T06:16:42;10.75;;;2.60;;
54977;SDS011;40873;47.522;19.106;2023-08-01T06:19:09;5.68;;;2.45;;
54977;SDS011;40873;47.522;19.106;2023-08-01T06:21:36;10.57;;;3.92;;
54977;SDS011;40873;47.522;19.106;2023-08-01T06:24:03;7.07;;;2.75;;
54977;SDS011;40873;47.522;19.106;2023-08-01T06:26:30;8.02;;;3.03;;
54977;SDS011;40873;47.522;19.106;2023-08-01T06:28:57;8.60;;;3.38;;
54977;SDS011;40873;47.522;19.106;2023-08-01T06:31:25;5.55;;;3.50;;
54977;SDS011;40873;47.522;19.106;2023-08-01T06:33:52;6.20;;;2.72;;
54977;SDS011;40873;47.522;19.106;2023-08-01T06:36:19;5.88;;;3.28;;
54977;SDS011;40873;47.522;19.106;2023-08-01T06:38:46;8.32;;;3.70;;
54977;SDS011;40873;47.522;19.106;2023-08-01T06:41:13;9.10;;;3.00;;
54977;SDS011;40873;47.522;19.106;2023-08-01T06:43:40;7.50;;;2.05;;
54977;SDS011;40873;47.522;19.106;2023-08-01T06:46:07;4.43;;;2.25;;
54977;SDS011;40873;47.522;19.106;2023-08-01T06:48:34;8.85;;;2.65;;
54977;SDS011;40873;47.522;19.106;2023-08-01T06:51:01;7.25;;;2.40;;
54977;SDS011;40873;47.522;19.106;2023-08-01T06:53:29;8.10;;;1.85;;
54977;SDS011;40873;47.522;19.106;2023-08-01T06:55:56;5.22;;;1.83;;
54977;SDS011;40873;47.522;19.106;2023-08-01T06:58:23;11.32;;;2.70;;
54977;SDS011;40873;47.522;19.106;2023-08-01T07:00:50;9.43;;;2.50;;
54977;SDS011;40873;47.522;19.106;2023-08-01T07:03:17;5.47;;;2.33;;
54977;SDS011;40873;47.522;19.106;2023-08-01T07:05:44;7.85;;;1.90;;
54977;SDS011;40873;47.522;19.106;2023-08-01T07:08:11;5.95;;;2.33;;
54977;SDS011;40873;47.522;19.106;2023-08-01T07:10:39;7.32;;;2.03;;
54977;SDS011;40873;47.522;19.106;2023-08-01T07:13:06;3.72;;;1.70;;
54977;SDS011;40873;47.522;19.106;2023-08-01T07:15:33;6.25;;;1.90;;
54977;SDS011;40873;47.522;19.106;2023-08-01T07:18:00;4.95;;;2.33;;
54977;SDS011;40873;47.522;19.106;2023-08-01T07:20:27;6.65;;;2.10;;
54977;SDS011;40873;47.522;19.106;2023-08-01T07:22:54;8.45;;;2.75;;
54977;SDS011;40873;47.522;19.106;2023-08-01T07:25:21;6.13;;;2.10;;
54977;SDS011;40873;47.522;19.106;2023-08-01T07:27:49;6.50;;;2.05;;
54977;SDS011;40873;47.522;19.106;2023-08-01T07:30:16;4.07;;;1.88;;
54977;SDS011;40873;47.522;19.106;2023-08-01T07:32:43;7.28;;;2.25;;
54977;SDS011;40873;47.522;19.106;2023-08-01T07:35:10;10.38;;;2.55;;
54977;SDS011;40873;47.522;19.106;2023-08-01T07:37:37;6.07;;;2.30;;
54977;SDS011;40873;47.522;19.106;2023-08-01T07:40:05;3.05;;;1.85;;
54977;SDS011;40873;47.522;19.106;2023-08-01T07:42:33;4.15;;;1.75;;
54977;SDS011;40873;47.522;19.106;2023-08-01T07:45:02;3.83;;;2.33;;
54977;SDS011;40873;47.522;19.106;2023-08-01T07:47:29;4.88;;;1.95;;
54977;SDS011;40873;47.522;19.106;2023-08-01T07:49:56;3.70;;;1.77;;
54977;SDS011;40873;47.522;19.106;2023-08-01T07:52:23;5.85;;;2.40;;
54977;SDS011;40873;47.522;19.106;2023-08-01T07:54:51;9.27;;;2.53;;
54977;SDS011;40873;47.522;19.106;2023-08-01T07:57:19;5.78;;;2.40;;
54977;SDS011;40873;47.522;19.106;2023-08-01T07:59:46;2.80;;;1.48;;
54977;SDS011;40873;47.522;19.106;2023-08-01T08:02:13;4.80;;;1.85;;
54977;SDS011;40873;47.522;19.106;2023-08-01T08:04:40;3.70;;;1.70;;
54977;SDS011;40873;47.522;19.106;2023-08-01T08:07:07;3.75;;;1.63;;
54977;SDS011;40873;47.522;19.106;2023-08-01T08:09:35;4.95;;;1.52;;
54977;SDS011;40873;47.522;19.106;2023-08-01T08:12:01;9.88;;;2.13;;
54977;SDS011;40873;47.522;19.106;2023-08-01T08:14:29;8.02;;;2.10;;
54977;SDS011;40873;47.522;19.106;2023-08-01T08:16:56;4.43;;;1.70;;
54977;SDS011;40873;47.522;19.106;2023-08-01T08:19:24;3.22;;;1.60;;
54977;SDS011;40873;47.522;19.106;2023-08-01T08:21:51;6.03;;;1.48;;
54977;SDS011;40873;47.522;19.106;2023-08-01T08:24:18;9.20;;;2.08;;
54977;SDS011;40873;47.522;19.106;2023-08-01T08:26:45;5.05;;;2.10;;
54977;SDS011;40873;47.522;19.106;2023-08-01T08:29:12;3.47;;;1.88;;
54977;SDS011;40873;47.522;19.106;2023-08-01T08:31:39;2.67;;;1.70;;
54977;SDS011;40873;47.522;19.106;2023-08-01T08:34:07;4.15;;;1.35;;
54977;SDS011;40873;47.522;19.106;2023-08-01T08:36:33;8.02;;;1.90;;
54977;SDS011;40873;47.522;19.106;2023-08-01T08:39:01;4.32;;;1.85;;
54977;SDS011;40873;47.522;19.106;2023-08-01T08:41:30;6.15;;;2.17;;
54977;SDS011;40873;47.522;19.106;2023-08-01T08:44:02;8.40;;;1.92;;
54977;SDS011;40873;47.522;19.106;2023-08-01T08:46:33;4.30;;;1.80;;
54977;SDS011;40873;47.522;19.106;2023-08-01T08:49:09;5.28;;;1.60;;
54977;SDS011;40873;47.522;19.106;2023-08-01T08:51:37;3.63;;;1.65;;
54977;SDS011;40873;47.522;19.106;2023-08-01T08:54:05;5.95;;;2.33;;
54977;SDS011;40873;47.522;19.106;2023-08-01T08:56:33;4.85;;;1.65;;
54977;SDS011;40873;47.522;19.106;2023-08-01T08:59:01;2.60;;;1.42;;
54977;SDS011;40873;47.522;19.106;2023-08-01T09:01:28;4.13;;;1.75;;
54977;SDS011;40873;47.522;19.106;2023-08-01T09:03:57;4.82;;;1.83;;
54977;SDS011;40873;47.522;19.106;2023-08-01T09:06:28;4.60;;;1.63;;
54977;SDS011;40873;47.522;19.106;2023-08-01T09:09:09;3.65;;;1.92;;
54977;SDS011;40873;47.522;19.106;2023-08-01T09:11:41;3.50;;;1.98;;
54977;SDS011;40873;47.522;19.106;2023-08-01T09:14:11;4.53;;;1.65;;
54977;SDS011;40873;47.522;19.106;2023-08-01T09:16:39;4.18;;;1.80;;
54977;SDS011;40873;47.522;19.106;2023-08-01T09:19:08;5.68;;;1.45;;
54977;SDS011;40873;47.522;19.106;2023-08-01T09:21:36;2.90;;;1.83;;
54977;SDS011;40873;47.522;19.106;2023-08-01T09:24:13;5.10;;;1.63;;
54977;SDS011;40873;47.522;19.106;2023-08-01T09:26:42;3.50;;;1.77;;
54977;SDS011;40873;47.522;19.106;2023-08-01T09:29:10;9.50;;;2.28;;
54977;SDS011;40873;47.522;19.106;2023-08-01T09:31:40;5.28;;;2.13;;
54977;SDS011;40873;47.522;19.106;2023-08-01T09:34:19;3.13;;;1.48;;
54977;SDS011;40873;47.522;19.106;2023-08-01T09:36:46;2.75;;;1.80;;
54977;SDS011;40873;47.522;19.106;2023-08-01T09:39:20;3.75;;;1.33;;
54977;SDS011;40873;47.522;19.106;2023-08-01T09:41:57;2.40;;;1.40;;
54977;SDS011;40873;47.522;19.106;2023-08-01T09:44:28;4.93;;;1.80;;
54977;SDS011;40873;47.522;19.106;2023-08-01T09:46:57;4.05;;;1.20;;
54977;SDS011;40873;47.522;19.106;2023-08-01T09:49:26;3.88;;;1.50;;
54977;SDS011;40873;47.522;19.106;2023-08-01T09:51:54;3.53;;;1.40;;
54977;SDS011;40873;47.522;19.106;2023-08-01T09:54:22;3.28;;;1.38;;
54977;SDS011;40873;47.522;19.106;2023-08-01T09:56:51;3.88;;;1.65;;
54977;SDS011;40873;47.522;19.106;2023-08-01T09:59:23;4.93;;;1.65;;
54977;SDS011;40873;47.522;19.106;2023-08-01T10:01:52;7.53;;;1.87;;
54977;SDS011;40873;47.522;19.106;2023-08-01T10:04:26;2.63;;;1.35;;
54977;SDS011;40873;47.522;19.106;2023-08-01T10:06:59;2.80;;;1.42;;
54977;SDS011;40873;47.522;19.106;2023-08-01T10:09:41;5.65;;;1.48;;
54977;SDS011;40873;47.522;19.106;2023-08-01T10:12:09;2.55;;;1.58;;
54977;SDS011;40873;47.522;19.106;2023-08-01T10:14:39;4.97;;;1.50;;
54977;SDS011;40873;47.522;19.106;2023-08-01T10:17:07;3.80;;;1.40;;
54977;SDS011;40873;47.522;19.106;2023-08-01T10:19:35;5.85;;;1.63;;
54977;SDS011;40873;47.522;19.106;2023-08-01T10:22:04;3.90;;;1.10;;
54977;SDS011;40873;47.522;19.106;2023-08-01T10:24:33;7.03;;;1.52;;
54977;SDS011;40873;47.522;19.106;2023-08-01T10:27:19;2.38;;;1.48;;
54977;SDS011;40873;47.522;19.106;2023-08-01T10:29:56;3.53;;;1.25;;
54977;SDS011;40873;47.522;19.106;2023-08-01T10:32:35;5.05;;;1.50;;
54977;SDS011;40873;47.522;19.106;2023-08-01T10:35:04;2.00;;;1.05;;
54977;SDS011;40873;47.522;19.106;2023-08-01T10:37:40;4.38;;;1.20;;
54977;SDS011;40873;47.522;19.106;2023-08-01T10:40:10;4.50;;;1.83;;
54977;SDS011;40873;47.522;19.106;2023-08-01T10:42:42;3.17;;;1.30;;
54977;SDS011;40873;47.522;19.106;2023-08-01T10:45:20;4.32;;;1.38;;
54977;SDS011;40873;47.522;19.106;2023-08-01T10:47:49;4.18;;;1.50;;
54977;SDS011;40873;47.522;19.106;2023-08-01T10:50:17;3.20;;;1.20;;
54977;SDS011;40873;47.522;19.106;2023-08-01T10:52:45;6.68;;;1.63;;
54977;SDS011;40873;47.522;19.106;2023-08-01T10:55:13;2.55;;;1.08;;
54977;SDS011;40873;47.522;19.106;2023-08-01T10:57:47;4.93;;;1.33;;
54977;SDS011;40873;47.522;19.106;2023-08-01T11:00:16;5.53;;;1.60;;
54977;SDS011;40873;47.522;19.106;2023-08-01T11:02:49;2.75;;;1.15;;
54977;SDS011;40873;47.522;19.106;2023-08-01T11:05:18;7.43;;;1.40;;
54977;SDS011;40873;47.522;19.106;2023-08-01T11:07:58;3.55;;;1.35;;
54977;SDS011;40873;47.522;19.106;2023-08-01T11:10:28;3.75;;;1.30;;
54977;SDS011;40873;47.522;19.106;2023-08-01T11:12:59;2.53;;;1.20;;
54977;SDS011;40873;47.522;19.106;2023-08-01T11:15:26;2.50;;;1.35;;
54977;SDS011;40873;47.522;19.106;2023-08-01T11:17:54;3.30;;;1.17;;
54977;SDS011;40873;47.522;19.106;2023-08-01T11:20:23;5.50;;;1.58;;
54977;SDS011;40873;47.522;19.106;2023-08-01T11:22:57;4.40;;;1.63;;
54977;SDS011;40873;47.522;19.106;2023-08-01T11:25:41;3.40;;;1.23;;
54977;SDS011;40873;47.522;19.106;2023-08-01T11:28:16;2.58;;;1.48;;
54977;SDS011;40873;47.522;19.106;2023-08-01T11:30:44;3.35;;;1.20;;
54977;SDS011;40873;47.522;19.106;2023-08-01T11:38:20;1.98;;;1.00;;
54977;SDS011;40873;47.522;19.106;2023-08-01T11:40:49;3.83;;;1.60;;
54977;SDS011;40873;47.522;19.106;2023-08-01T11:43:17;7.57;;;1.55;;
54977;SDS011;40873;47.522;19.106;2023-08-01T11:45:48;5.35;;;1.23;;
54977;SDS011;40873;47.522;19.106;2023-08-01T11:48:17;4.03;;;1.33;;
54977;SDS011;40873;47.522;19.106;2023-08-01T11:50:45;4.90;;;1.27;;
54977;SDS011;40873;47.522;19.106;2023-08-01T11:53:21;1.70;;;1.00;;
54977;SDS011;40873;47.522;19.106;2023-08-01T11:55:49;2.33;;;1.10;;
54977;SDS011;40873;47.522;19.106;2023-08-01T11:58:40;5.20;;;1.10;;
54977;SDS011;40873;47.522;19.106;2023-08-01T12:01:10;10.82;;;2.40;;
54977;SDS011;40873;47.522;19.106;2023-08-01T12:03:42;3.13;;;1.30;;
54977;SDS011;40873;47.522;19.106;2023-08-01T12:06:13;3.00;;;1.42;;
54977;SDS011;40873;47.522;19.106;2023-08-01T12:08:45;2.13;;;1.13;;
54977;SDS011;40873;47.522;19.106;2023-08-01T12:14:10;3.33;;;1.13;;
54977;SDS011;40873;47.522;19.106;2023-08-01T12:16:42;2.45;;;1.08;;
54977;SDS011;40873;47.522;19.106;2023-08-01T12:19:16;3.57;;;1.40;;
54977;SDS011;40873;47.522;19.106;2023-08-01T12:21:45;3.60;;;1.55;;
54977;SDS011;40873;47.522;19.106;2023-08-01T12:24:12;4.22;;;1.80;;
54977;SDS011;40873;47.522;19.106;2023-08-01T12:26:39;2.85;;;1.45;;
54977;SDS011;40873;47.522;19.106;2023-08-01T12:29:07;2.80;;;1.38;;
54977;SDS011;40873;47.522;19.106;2023-08-01T12:31:35;4.55;;;1.10;;
54977;SDS011;40873;47.522;19.106;2023-08-01T12:34:02;3.33;;;1.30;;
54977;SDS011;40873;47.522;19.106;2023-08-01T12:36:29;5.25;;;1.58;;
54977;SDS011;40873;47.522;19.106;2023-08-01T12:38:56;4.85;;;1.40;;
54977;SDS011;40873;47.522;19.106;2023-08-01T12:41:23;4.95;;;1.27;;
54977;SDS011;40873;47.522;19.106;2023-08-01T12:43:50;4.43;;;1.40;;
54977;SDS011;40873;47.522;19.106;2023-08-01T12:46:17;8.00;;;1.90;;
54977;SDS011;40873;47.522;19.106;2023-08-01T12:48:45;3.42;;;1.38;;
54977;SDS011;40873;47.522;19.106;2023-08-01T12:51:13;3.78;;;1.20;;
54977;SDS011;40873;47.522;19.106;2023-08-01T12:53:41;3.47;;;0.82;;
54977;SDS011;40873;47.522;19.106;2023-08-01T12:56:09;19.17;;;1.63;;
54977;SDS011;40873;47.522;19.106;2023-08-01T12:58:36;9.80;;;1.92;;
54977;SDS011;40873;47.522;19.106;2023-08-01T13:01:03;3.05;;;1.10;;
54977;SDS011;40873;47.522;19.106;2023-08-01T13:03:31;3.35;;;1.30;;
54977;SDS011;40873;47.522;19.106;2023-08-01T13:05:58;3.03;;;1.10;;
54977;SDS011;40873;47.522;19.106;2023-08-01T13:08:25;3.78;;;1.65;;
54977;SDS011;40873;47.522;19.106;2023-08-01T13:10:52;4.70;;;1.40;;
54977;SDS011;40873;47.522;19.106;2023-08-01T13:13:20;3.10;;;1.00;;
54977;SDS011;40873;47.522;19.106;2023-08-01T13:15:47;4.15;;;1.27;;
54977;SDS011;40873;47.522;19.106;2023-08-01T13:18:14;3.45;;;1.35;;
54977;SDS011;40873;47.522;19.106;2023-08-01T13:20:41;4.95;;;1.50;;
54977;SDS011;40873;47.522;19.106;2023-08-01T13:23:10;2.58;;;0.93;;
54977;SDS011;40873;47.522;19.106;2023-08-01T13:25:37;4.18;;;1.25;;
54977;SDS011;40873;47.522;19.106;2023-08-01T13:28:04;3.38;;;1.20;;
54977;SDS011;40873;47.522;19.106;2023-08-01T13:30:31;7.25;;;1.17;;
54977;SDS011;40873;47.522;19.106;2023-08-01T13:32:58;6.30;;;1.58;;
54977;SDS011;40873;47.522;19.106;2023-08-01T13:35:25;6.18;;;1.88;;
54977;SDS011;40873;47.522;19.106;2023-08-01T13:37:52;2.83;;;1.10;;
54977;SDS011;40873;47.522;19.106;2023-08-01T13:40:19;3.25;;;1.27;;
54977;SDS011;40873;47.522;19.106;2023-08-01T13:42:46;3.00;;;1.00;;
54977;SDS011;40873;47.522;19.106;2023-08-01T13:45:13;3.42;;;1.50;;
54977;SDS011;40873;47.522;19.106;2023-08-01T13:47:40;4.38;;;1.63;;
54977;SDS011;40873;47.522;19.106;2023-08-01T13:50:07;3.60;;;1.50;;
54977;SDS011;40873;47.522;19.106;2023-08-01T13:52:38;3.25;;;1.65;;
54977;SDS011;40873;47.522;19.106;2023-08-01T13:55:05;3.38;;;1.73;;
54977;SDS011;40873;47.522;19.106;2023-08-01T13:57:34;2.28;;;1.08;;
54977;SDS011;40873;47.522;19.106;2023-08-01T14:00:01;2.95;;;0.80;;
54977;SDS011;40873;47.522;19.106;2023-08-01T14:02:39;3.53;;;1.52;;
54977;SDS011;40873;47.522;19.106;2023-08-01T14:05:06;5.22;;;1.23;;
54977;SDS011;40873;47.522;19.106;2023-08-01T14:07:37;2.70;;;1.00;;
54977;SDS011;40873;47.522;19.106;2023-08-01T14:10:09;4.40;;;0.80;;
54977;SDS011;40873;47.522;19.106;2023-08-01T14:12:36;3.63;;;1.50;;
54977;SDS011;40873;47.522;19.106;2023-08-01T14:15:03;3.38;;;1.08;;
54977;SDS011;40873;47.522;19.106;2023-08-01T14:17:31;1.90;;;1.00;;
54977;SDS011;40873;47.522;19.106;2023-08-01T14:19:58;3.58;;;0.95;;
54977;SDS011;40873;47.522;19.106;2023-08-01T14:22:26;3.55;;;1.20;;
54977;SDS011;40873;47.522;19.106;2023-08-01T14:24:53;1.55;;;0.77;;
54977;SDS011;40873;47.522;19.106;2023-08-01T14:27:20;2.75;;;1.00;;
54977;SDS011;40873;47.522;19.106;2023-08-01T14:29:47;5.53;;;1.20;;
54977;SDS011;40873;47.522;19.106;2023-08-01T14:32:17;6.80;;;1.40;;
54977;SDS011;40873;47.522;19.106;2023-08-01T14:34:45;5.72;;;1.38;;
54977;SDS011;40873;47.522;19.106;2023-08-01T14:37:12;2.95;;;1.27;;
54977;SDS011;40873;47.522;19.106;2023-08-01T14:39:39;2.17;;;1.40;;
54977;SDS011;40873;47.522;19.106;2023-08-01T14:42:06;2.83;;;1.40;;
54977;SDS011;40873;47.522;19.106;2023-08-01T14:44:33;3.20;;;1.33;;
54977;SDS011;40873;47.522;19.106;2023-08-01T14:47:00;3.35;;;1.20;;